createdAt,value
2024-04-10T00:00:35.501Z,1.07
2024-04-10T00:03:07.415Z,0.90
2024-04-10T00:05:35.087Z,1.00
2024-04-10T00:08:02.591Z,0.90
2024-04-10T00:10:30.259Z,1.10
2024-04-10T00:12:57.985Z,0.73
2024-04-10T00:15:25.590Z,1.40
2024-04-10T00:17:53.066Z,0.83
2024-04-10T00:20:21.020Z,1.00
2024-04-10T00:22:48.541Z,0.80
2024-04-10T00:25:16.184Z,0.73
2024-04-10T00:27:43.872Z,1.00
2024-04-10T00:30:11.350Z,0.80
2024-04-10T00:32:38.949Z,1.07
2024-04-10T00:35:07.374Z,1.00
2024-04-10T00:37:34.898Z,1.00
2024-04-10T00:40:02.693Z,1.00
2024-04-10T00:42:30.511Z,0.90
2024-04-10T00:44:58.739Z,0.90
2024-04-10T00:47:26.321Z,1.00
2024-04-10T00:49:54.431Z,0.63
2024-04-10T00:52:21.928Z,0.90
2024-04-10T00:54:49.460Z,0.90
2024-04-10T00:57:16.907Z,1.00
2024-04-10T00:59:44.455Z,0.93
2024-04-10T01:02:12.063Z,0.90
2024-04-10T01:04:39.759Z,1.03
2024-04-10T01:07:11.052Z,1.03
2024-04-10T01:09:38.611Z,1.13
2024-04-10T01:12:06.469Z,0.80
2024-04-10T01:14:34.255Z,1.10
2024-04-10T01:17:03.072Z,1.00
2024-04-10T01:19:30.721Z,0.90
2024-04-10T01:21:58.152Z,0.87
2024-04-10T01:24:25.744Z,0.97
2024-04-10T01:26:53.130Z,0.90
2024-04-10T01:29:20.806Z,0.90
2024-04-10T01:31:48.353Z,0.83
2024-04-10T01:34:15.900Z,0.73
2024-04-10T01:36:43.706Z,1.00
2024-04-10T01:39:11.192Z,0.93
2024-04-10T01:41:38.773Z,1.13
2024-04-10T01:44:06.346Z,0.87
2024-04-10T01:46:33.800Z,0.70
2024-04-10T01:49:01.904Z,0.80
2024-04-10T01:51:29.494Z,1.00
2024-04-10T01:53:56.918Z,0.90
2024-04-10T01:56:24.513Z,0.90
2024-04-10T01:58:51.987Z,0.80
2024-04-10T02:01:48.255Z,0.97
2024-04-10T02:04:15.767Z,1.00
2024-04-10T02:06:43.275Z,1.20
2024-04-10T02:09:10.689Z,1.17
2024-04-10T02:11:40.915Z,1.00
2024-04-10T02:14:09.414Z,1.17
2024-04-10T02:16:37.288Z,1.37
2024-04-10T02:19:04.913Z,1.07
2024-04-10T02:21:32.453Z,1.30
2024-04-10T02:24:00.082Z,1.50
2024-04-10T02:26:27.716Z,1.37
2024-04-10T02:28:55.257Z,1.43
2024-04-10T02:31:22.647Z,1.70
2024-04-10T02:33:50.169Z,1.50
2024-04-10T02:36:18.110Z,1.53
2024-04-10T02:38:45.867Z,2.00
2024-04-10T02:41:13.281Z,1.60
2024-04-10T02:43:40.815Z,1.27
2024-04-10T02:46:08.261Z,1.50
2024-04-10T02:48:35.867Z,1.40
2024-04-10T02:51:03.659Z,1.50
2024-04-10T02:53:31.219Z,1.57
2024-04-10T02:55:58.866Z,1.33
2024-04-10T02:58:26.324Z,1.37
2024-04-10T03:00:56.533Z,1.13
2024-04-10T03:03:25.785Z,1.50
2024-04-10T03:06:09.307Z,1.37
2024-04-10T03:08:41.154Z,1.20
2024-04-10T03:11:11.907Z,1.47
2024-04-10T03:13:39.670Z,1.60
2024-04-10T03:16:08.636Z,1.50
2024-04-10T03:18:36.360Z,1.30
2024-04-10T03:21:04.449Z,1.50
2024-04-10T03:23:32.021Z,1.50
2024-04-10T03:26:06.863Z,1.20
2024-04-10T03:28:35.812Z,1.70
2024-04-10T03:31:08.174Z,1.50
2024-04-10T03:33:36.974Z,1.20
2024-04-10T03:36:06.053Z,1.40
2024-04-10T03:38:33.701Z,1.70
2024-04-10T03:41:01.282Z,1.43
2024-04-10T03:43:29.083Z,1.13
2024-04-10T03:45:57.969Z,1.20
2024-04-10T03:48:25.932Z,1.40
2024-04-10T03:51:02.940Z,1.23
2024-04-10T03:53:32.109Z,1.30
2024-04-10T03:55:59.669Z,1.37
2024-04-10T03:58:27.250Z,1.40
2024-04-10T04:00:54.827Z,1.20
2024-04-10T04:03:26.892Z,1.20
2024-04-10T04:05:54.386Z,0.90
2024-04-10T04:08:24.461Z,1.00
2024-04-10T04:10:52.428Z,1.00
2024-04-10T04:13:21.598Z,0.97
2024-04-10T04:15:49.802Z,0.93
2024-04-10T04:18:17.598Z,1.10
2024-04-10T04:20:47.688Z,0.90
2024-04-10T04:23:15.557Z,1.10
2024-04-10T04:25:43.260Z,0.90
2024-04-10T04:28:10.769Z,0.90
2024-04-10T04:30:38.505Z,1.20
2024-04-10T04:33:06.333Z,1.00
2024-04-10T04:35:34.151Z,1.10
2024-04-10T04:38:01.852Z,1.03
2024-04-10T04:40:33.439Z,1.10
2024-04-10T04:43:11.528Z,1.20
2024-04-10T04:45:42.294Z,1.70
2024-04-10T04:48:12.035Z,1.30
2024-04-10T04:50:47.778Z,1.07
2024-04-10T04:53:16.774Z,1.40
2024-04-10T04:55:45.564Z,1.47
2024-04-10T04:58:13.069Z,1.37
2024-04-10T05:00:44.363Z,1.60
2024-04-10T05:03:31.906Z,1.40
2024-04-10T05:05:59.510Z,1.27
2024-04-10T05:08:27.005Z,1.00
2024-04-10T05:10:54.885Z,1.30
2024-04-10T05:13:22.390Z,1.30
2024-04-10T05:15:49.883Z,1.10
2024-04-10T05:18:17.517Z,1.10
2024-04-10T05:20:45.452Z,0.70
2024-04-10T05:23:13.225Z,1.10
2024-04-10T05:25:40.961Z,1.07
2024-04-10T05:28:08.341Z,1.00
2024-04-10T05:30:36.609Z,0.70
2024-04-10T05:33:04.465Z,0.80
2024-04-10T05:35:32.141Z,0.70
2024-04-10T05:38:01.119Z,0.87
2024-04-10T05:40:29.007Z,0.70
2024-04-10T05:42:56.472Z,1.00
2024-04-10T05:45:24.041Z,0.90
2024-04-10T05:47:52.571Z,1.10
2024-04-10T05:50:26.237Z,0.83
2024-04-10T05:52:53.825Z,0.93
2024-04-10T05:55:21.402Z,1.30
2024-04-10T05:57:49.523Z,1.10
2024-04-10T06:00:18.812Z,1.13
2024-04-10T06:02:46.526Z,1.20
2024-04-10T06:05:14.514Z,1.20
2024-04-10T06:07:43.936Z,1.40
2024-04-10T06:10:13.132Z,1.10
2024-04-10T06:12:43.141Z,1.10
2024-04-10T06:15:10.535Z,1.10
2024-04-10T06:17:38.772Z,1.17
2024-04-10T06:20:08.796Z,1.20
2024-04-10T06:22:36.343Z,1.23
2024-04-10T06:25:04.116Z,1.10
2024-04-10T06:27:34.859Z,0.87
2024-04-10T06:30:03.536Z,1.37
2024-04-10T06:32:32.857Z,1.03
2024-04-10T06:35:00.670Z,1.40
2024-04-10T06:37:29.895Z,1.20
2024-04-10T06:39:57.633Z,1.00
2024-04-10T06:42:25.244Z,1.20
2024-04-10T06:44:52.667Z,1.10
2024-04-10T06:47:20.285Z,1.40
2024-04-10T06:49:51.633Z,1.13
2024-04-10T06:52:19.715Z,1.40
2024-04-10T06:54:47.119Z,1.30
2024-04-10T06:57:14.727Z,1.30
2024-04-10T06:59:42.602Z,1.10
2024-04-10T07:02:10.391Z,1.00
2024-04-10T07:04:38.092Z,1.20
2024-04-10T07:07:05.915Z,1.13
2024-04-10T07:09:34.206Z,1.00
2024-04-10T07:12:03.158Z,1.00
2024-04-10T07:14:36.040Z,1.10
2024-04-10T07:17:05.973Z,1.00
2024-04-10T07:19:36.499Z,1.20
2024-04-10T07:22:08.677Z,1.10
2024-04-10T07:24:36.597Z,1.20
2024-04-10T07:27:04.287Z,1.13
2024-04-10T07:29:31.940Z,1.30
2024-04-10T07:31:59.417Z,1.70
2024-04-10T07:34:27.227Z,1.00
2024-04-10T07:36:55.206Z,1.20
2024-04-10T07:39:22.705Z,1.10
2024-04-10T07:41:50.297Z,1.20
2024-04-10T07:44:18.769Z,1.30
2024-04-10T07:46:46.578Z,1.50
2024-04-10T07:49:15.201Z,1.33
2024-04-10T07:51:42.840Z,1.50
2024-04-10T07:54:10.253Z,1.33
2024-04-10T07:56:38.194Z,1.43
2024-04-10T07:59:05.960Z,1.40
2024-04-10T08:01:33.654Z,1.10
2024-04-10T08:04:04.133Z,1.57
2024-04-10T08:06:37.710Z,1.30
2024-04-10T08:09:05.588Z,1.10
2024-04-10T08:11:33.290Z,1.50
2024-04-10T08:14:02.444Z,1.20
2024-04-10T08:16:30.267Z,1.40
2024-04-10T08:18:59.234Z,1.43
2024-04-10T08:21:27.050Z,1.30
2024-04-10T08:23:54.555Z,1.30
2024-04-10T08:26:24.506Z,1.50
2024-04-10T08:28:54.983Z,1.37
2024-04-10T08:31:26.425Z,1.30
2024-04-10T08:33:55.091Z,1.60
2024-04-10T08:36:24.473Z,1.40
2024-04-10T08:38:52.978Z,1.17
2024-04-10T08:41:22.282Z,1.60
2024-04-10T08:43:53.729Z,1.47
2024-04-10T08:46:23.724Z,1.30
2024-04-10T08:48:56.390Z,1.73
2024-04-10T08:51:27.457Z,1.43
2024-04-10T08:53:57.288Z,1.20
2024-04-10T08:56:27.401Z,1.37
2024-04-10T08:58:55.416Z,1.60
2024-04-10T09:01:33.345Z,1.07
2024-04-10T09:04:14.955Z,1.20
2024-04-10T09:06:42.705Z,1.20
2024-04-10T09:09:10.758Z,1.07
2024-04-10T09:11:40.972Z,1.07
2024-04-10T09:14:16.725Z,1.23
2024-04-10T09:16:46.897Z,1.10
2024-04-10T09:19:19.579Z,1.50
2024-04-10T09:22:01.233Z,1.43
2024-04-10T09:24:31.080Z,1.27
2024-04-10T09:27:00.344Z,1.40
2024-04-10T09:29:31.974Z,1.50
2024-04-10T09:32:09.716Z,1.37
2024-04-10T09:34:37.653Z,1.10
2024-04-10T09:37:17.418Z,1.50
2024-04-10T09:39:45.119Z,1.53
2024-04-10T09:42:24.141Z,1.60
2024-04-10T09:45:01.618Z,1.70
2024-04-10T09:47:34.037Z,1.70
2024-04-10T09:50:03.862Z,1.80
2024-04-10T09:52:38.833Z,1.57
2024-04-10T09:55:07.367Z,1.67
2024-04-10T09:57:34.996Z,1.80
2024-04-10T10:00:03.745Z,2.20
2024-04-10T10:02:34.287Z,1.70
2024-04-10T10:05:06.079Z,1.57
2024-04-10T10:07:34.493Z,2.20
2024-04-10T10:10:08.978Z,1.73
2024-04-10T10:12:37.614Z,1.33
2024-04-10T10:15:12.336Z,1.60
2024-04-10T10:17:49.837Z,1.87
2024-04-10T10:20:25.817Z,1.53
2024-04-10T10:23:03.451Z,1.73
2024-04-10T10:25:31.711Z,1.80
2024-04-10T10:28:10.378Z,1.90
2024-04-10T10:30:39.165Z,1.60
2024-04-10T10:33:10.516Z,1.53
2024-04-10T10:35:38.581Z,1.60
2024-04-10T10:38:09.148Z,1.50
2024-04-10T10:40:39.772Z,1.60
2024-04-10T10:43:09.155Z,1.60
2024-04-10T10:45:38.043Z,1.47
2024-04-10T10:48:10.332Z,1.60
2024-04-10T10:50:39.204Z,1.73
2024-04-10T10:53:12.111Z,1.57
2024-04-10T10:55:53.854Z,1.67
2024-04-10T10:58:21.484Z,1.70
2024-04-10T11:00:49.352Z,1.53
2024-04-10T11:04:07.262Z,1.77
2024-04-10T11:06:35.465Z,1.83
2024-04-10T11:09:11.742Z,1.60
2024-04-10T11:11:40.019Z,1.67
2024-04-10T11:14:16.960Z,1.60
2024-04-10T11:16:44.743Z,1.60
2024-04-10T11:19:12.734Z,1.60
2024-04-10T11:21:41.235Z,1.43
2024-04-10T11:24:09.396Z,1.20
2024-04-10T11:26:37.165Z,1.40
2024-04-10T11:29:04.851Z,1.07
2024-04-10T11:31:32.861Z,0.70
2024-04-10T11:34:02.199Z,0.90
2024-04-10T11:36:29.837Z,0.60
2024-04-10T11:38:57.428Z,0.40
2024-04-10T11:41:25.823Z,0.47
2024-04-10T11:43:56.250Z,0.63
2024-04-10T11:46:23.890Z,0.50
2024-04-10T11:48:51.752Z,0.40
2024-04-10T11:51:19.538Z,0.40
2024-04-10T11:53:47.122Z,0.33
2024-04-10T11:56:16.914Z,0.40
2024-04-10T11:58:44.872Z,0.50
2024-04-10T12:01:12.546Z,0.37
2024-04-10T12:03:40.546Z,0.60
2024-04-10T12:06:13.922Z,0.27
2024-04-10T12:08:45.772Z,0.40
2024-04-10T12:11:16.381Z,0.50
2024-04-10T12:13:44.171Z,0.40
2024-04-10T12:16:11.922Z,0.60
2024-04-10T12:19:07.707Z,0.50
2024-04-10T12:21:35.624Z,0.50
2024-04-10T12:24:04.720Z,0.40
2024-04-10T12:26:35.398Z,0.40
2024-04-10T12:29:06.775Z,0.50
2024-04-10T12:31:38.619Z,0.30
2024-04-10T12:34:07.159Z,0.50
2024-04-10T12:36:54.244Z,0.60
2024-04-10T12:39:21.830Z,0.30
2024-04-10T12:41:54.017Z,0.50
2024-04-10T12:44:25.153Z,0.40
2024-04-10T12:46:58.369Z,0.50
2024-04-10T12:49:33.050Z,0.40
2024-04-10T12:52:03.821Z,0.50
2024-04-10T12:54:37.032Z,0.50
2024-04-10T12:57:05.789Z,0.50
2024-04-10T12:59:33.715Z,0.60
2024-04-10T13:02:01.795Z,0.57
2024-04-10T13:04:29.317Z,0.60
2024-04-10T13:06:57.112Z,0.43
2024-04-10T13:09:27.003Z,0.40
2024-04-10T13:11:54.633Z,0.50
2024-04-10T13:14:23.563Z,0.60
2024-04-10T13:16:52.969Z,0.40
2024-04-10T13:19:21.152Z,0.50
2024-04-10T13:21:48.800Z,0.60
2024-04-10T13:24:17.901Z,0.50
2024-04-10T13:26:45.599Z,0.60
2024-04-10T13:29:13.012Z,0.50
2024-04-10T13:31:40.582Z,0.53
2024-04-10T13:34:08.467Z,0.67
2024-04-10T13:36:36.272Z,0.77
2024-04-10T13:39:04.851Z,0.80
2024-04-10T13:41:33.299Z,0.80
2024-04-10T13:44:01.333Z,0.60
2024-04-10T13:46:29.055Z,0.87
2024-04-10T13:48:56.905Z,0.60
2024-04-10T13:51:26.860Z,0.60
2024-04-10T13:53:55.555Z,0.70
2024-04-10T13:56:24.191Z,0.70
2024-04-10T13:58:52.041Z,0.60
2024-04-10T14:01:22.650Z,0.70
2024-04-10T14:03:56.131Z,0.50
2024-04-10T14:06:26.197Z,0.60
2024-04-10T14:08:58.446Z,0.60
2024-04-10T14:11:26.559Z,0.80
2024-04-10T14:13:55.553Z,0.63
2024-04-10T14:16:23.612Z,0.70
2024-04-10T14:18:51.994Z,0.70
2024-04-10T14:21:20.071Z,0.60
2024-04-10T14:23:48.794Z,1.00
2024-04-10T14:26:20.286Z,0.90
2024-04-10T14:28:48.910Z,0.53
2024-04-10T14:31:16.489Z,0.80
2024-04-10T14:33:47.611Z,0.80
2024-04-10T14:36:15.943Z,0.80
2024-04-10T14:38:43.683Z,0.70
2024-04-10T14:41:11.598Z,0.90
2024-04-10T14:43:40.223Z,0.60
2024-04-10T14:46:18.361Z,0.70
2024-04-10T14:48:48.424Z,0.83
2024-04-10T14:51:16.090Z,0.97
2024-04-10T14:53:43.927Z,0.90
2024-04-10T14:56:20.810Z,0.70
2024-04-10T14:58:50.455Z,1.00
2024-04-10T15:01:23.543Z,1.00
2024-04-10T15:03:51.815Z,1.10
2024-04-10T15:06:19.698Z,0.87
2024-04-10T15:08:48.846Z,0.93
2024-04-10T15:11:26.392Z,1.00
2024-04-10T15:13:55.897Z,0.80
2024-04-10T15:16:23.716Z,0.70
2024-04-10T15:18:51.793Z,0.70
2024-04-10T15:21:19.689Z,0.90
2024-04-10T15:23:47.357Z,1.00
2024-04-10T15:26:15.085Z,0.80
2024-04-10T15:28:45.726Z,0.70
2024-04-10T15:31:13.599Z,0.97
2024-04-10T15:33:42.686Z,0.70
2024-04-10T15:36:16.873Z,1.00
2024-04-10T15:38:49.480Z,0.90
2024-04-10T15:41:20.212Z,0.80
2024-04-10T15:43:49.336Z,1.00
2024-04-10T15:46:19.850Z,0.70
2024-04-10T15:48:47.587Z,0.80
2024-04-10T15:51:16.918Z,0.80
2024-04-10T15:53:44.635Z,0.80
2024-04-10T15:56:13.282Z,0.80
2024-04-10T15:58:41.834Z,0.90
2024-04-10T16:01:14.586Z,1.07
2024-04-10T16:03:47.510Z,1.80
2024-04-10T16:06:17.898Z,1.50
2024-04-10T16:08:46.530Z,1.60
2024-04-10T16:11:14.832Z,1.80
2024-04-10T16:13:43.773Z,1.40
2024-04-10T16:16:11.985Z,1.60
2024-04-10T16:18:42.549Z,1.33
2024-04-10T16:21:11.349Z,1.53
2024-04-10T16:23:46.056Z,1.70
2024-04-10T16:26:16.198Z,1.70
2024-04-10T16:28:43.718Z,1.80
2024-04-10T16:31:16.360Z,1.67
2024-04-10T16:33:46.259Z,1.70
2024-04-10T16:36:15.046Z,2.17
2024-04-10T16:38:47.816Z,2.20
2024-04-10T16:41:17.591Z,1.87
2024-04-10T16:43:49.358Z,1.80
2024-04-10T16:46:18.252Z,1.77
2024-04-10T16:48:46.565Z,1.90
2024-04-10T16:51:14.803Z,1.87
2024-04-10T16:53:42.636Z,1.77
2024-04-10T16:56:25.004Z,1.67
2024-04-10T16:58:54.872Z,1.70
2024-04-10T17:01:26.234Z,1.80
2024-04-10T17:03:55.760Z,1.60
2024-04-10T17:06:23.535Z,1.60
2024-04-10T17:08:52.199Z,1.30
2024-04-10T17:11:20.172Z,1.50
2024-04-10T17:13:47.850Z,1.57
2024-04-10T17:16:21.244Z,1.77
2024-04-10T17:19:07.694Z,1.80
2024-04-10T17:21:50.903Z,1.93
2024-04-10T17:24:20.143Z,2.10
2024-04-10T17:26:48.511Z,2.47
2024-04-10T17:29:22.972Z,2.17
2024-04-10T17:31:54.715Z,2.70
2024-04-10T17:34:26.221Z,2.20
2024-04-10T17:36:58.083Z,2.20
2024-04-10T17:39:28.725Z,1.90
2024-04-10T17:41:57.278Z,2.03
2024-04-10T17:44:26.317Z,1.93
2024-04-10T17:46:54.616Z,1.67
2024-04-10T17:49:30.143Z,1.80
2024-04-10T17:51:58.330Z,1.90
2024-04-10T17:54:26.200Z,2.07
2024-04-10T17:56:54.301Z,2.20
2024-04-10T17:59:24.296Z,1.90
2024-04-10T18:01:58.872Z,2.20
2024-04-10T18:04:28.529Z,2.10
2024-04-10T18:06:56.868Z,2.20
2024-04-10T18:09:25.994Z,1.97
2024-04-10T18:11:54.380Z,2.00
2024-04-10T18:14:23.132Z,2.30
2024-04-10T18:16:51.990Z,2.30
2024-04-10T18:19:21.285Z,2.00
2024-04-10T18:21:49.892Z,2.50
2024-04-10T18:24:18.480Z,1.97
2024-04-10T18:26:47.665Z,2.47
2024-04-10T18:29:15.896Z,2.07
2024-04-10T18:31:44.563Z,2.30
2024-04-10T18:34:16.828Z,2.10
2024-04-10T18:36:48.154Z,2.07
2024-04-10T18:39:16.482Z,2.50
2024-04-10T18:41:45.543Z,2.10
2024-04-10T18:44:16.240Z,2.30
2024-04-10T18:46:45.157Z,2.53
2024-04-10T18:49:12.939Z,1.97
2024-04-10T18:51:43.279Z,2.20
2024-04-10T18:54:15.971Z,2.30
2024-04-10T18:56:47.449Z,2.27
2024-04-10T18:59:16.965Z,1.97
2024-04-10T19:01:45.201Z,2.07
2024-04-10T19:04:14.280Z,2.30
2024-04-10T19:06:58.529Z,1.90
2024-04-10T19:09:30.326Z,2.03
2024-04-10T19:12:00.856Z,2.50
2024-04-10T19:14:33.198Z,2.00
2024-04-10T19:17:02.226Z,1.97
2024-04-10T19:20:39.211Z,2.10
2024-04-10T19:23:09.484Z,2.30
2024-04-10T19:25:38.305Z,2.20
2024-04-10T19:28:07.553Z,2.30
2024-04-10T19:30:36.984Z,1.80
2024-04-10T19:33:08.919Z,2.70
2024-04-10T19:35:38.521Z,1.93
2024-04-10T19:38:09.748Z,2.30
2024-04-10T19:40:43.371Z,2.40
2024-04-10T19:43:13.676Z,2.40
2024-04-10T19:45:48.622Z,2.40
2024-04-10T19:48:19.585Z,2.10
2024-04-10T19:50:50.436Z,1.90
2024-04-10T19:53:19.648Z,2.43
2024-04-10T19:55:48.205Z,2.27
2024-04-10T19:58:17.227Z,2.40
2024-04-10T20:00:47.894Z,2.23
2024-04-10T20:03:18.221Z,2.23
2024-04-10T20:05:49.520Z,2.60
2024-04-10T20:10:54.285Z,2.30
2024-04-10T20:13:24.405Z,2.30
2024-04-10T20:16:06.238Z,2.50
2024-04-10T20:18:38.671Z,2.40
2024-04-10T20:21:14.258Z,2.40
2024-04-10T20:23:43.917Z,2.20
2024-04-10T20:26:13.160Z,2.33
2024-04-10T20:28:42.990Z,2.20
2024-04-10T20:31:17.867Z,2.40
2024-04-10T20:33:48.095Z,2.20
2024-04-10T20:36:17.122Z,2.10
2024-04-10T20:38:46.619Z,2.40
2024-04-10T20:41:18.190Z,2.43
2024-04-10T20:43:46.681Z,2.10
2024-04-10T20:46:15.244Z,2.30
2024-04-10T20:48:49.718Z,2.03
2024-04-10T20:51:20.168Z,1.70
2024-04-10T20:53:50.555Z,2.03
2024-04-10T20:56:21.554Z,1.80
2024-04-10T20:58:51.058Z,1.90
2024-04-10T21:01:20.668Z,1.83
2024-04-10T21:03:49.725Z,1.90
2024-04-10T21:06:18.266Z,2.13
2024-04-10T21:09:06.668Z,2.10
2024-04-10T21:11:55.722Z,1.87
2024-04-10T21:14:42.585Z,1.70
2024-04-10T21:17:29.185Z,2.17
2024-04-10T21:20:15.212Z,2.00
2024-04-10T21:23:01.398Z,1.67
2024-04-10T21:25:52.567Z,1.93
2024-04-10T21:28:39.684Z,1.80
2024-04-10T21:31:27.076Z,1.57
2024-04-10T21:34:13.449Z,1.87
2024-04-10T21:36:59.668Z,1.87
2024-04-10T21:39:45.991Z,1.90
2024-04-10T21:42:32.494Z,1.80
2024-04-10T21:45:18.705Z,2.00
2024-04-10T21:48:05.239Z,1.80
2024-04-10T21:50:51.821Z,1.90
2024-04-10T21:53:38.374Z,2.17
2024-04-10T21:56:26.136Z,1.80
2024-04-10T21:59:15.157Z,1.80
2024-04-10T22:02:06.796Z,1.67
2024-04-10T22:04:59.762Z,1.80
2024-04-10T22:07:48.037Z,1.93
2024-04-10T22:10:15.807Z,1.50
2024-04-10T22:12:43.425Z,1.73
2024-04-10T22:15:12.090Z,1.70
2024-04-10T22:17:59.063Z,1.60
2024-04-10T22:20:46.067Z,1.70
2024-04-10T22:23:32.300Z,1.50
2024-04-10T22:26:02.490Z,1.63
2024-04-10T22:28:29.906Z,1.57
2024-04-10T22:30:57.502Z,1.37
2024-04-10T22:33:25.469Z,1.80
2024-04-10T22:36:00.403Z,1.60
2024-04-10T22:38:30.689Z,1.80
2024-04-10T22:40:59.470Z,1.63
2024-04-10T22:43:27.031Z,2.00
2024-04-10T22:45:54.592Z,1.27
2024-04-10T22:48:23.469Z,2.00
2024-04-10T22:50:51.299Z,1.80
2024-04-10T22:53:19.697Z,1.60
2024-04-10T22:55:48.824Z,1.93
2024-04-10T22:58:16.346Z,1.70
2024-04-10T23:00:43.886Z,2.17
2024-04-10T23:03:11.406Z,1.80
2024-04-10T23:05:47.996Z,1.90
2024-04-10T23:10:50.308Z,1.90
2024-04-10T23:13:17.777Z,1.97
2024-04-10T23:15:45.205Z,2.10
2024-04-10T23:18:21.396Z,1.93
2024-04-10T23:20:59.880Z,1.90
2024-04-10T23:23:27.477Z,2.20
2024-04-10T23:25:54.883Z,1.87
2024-04-10T23:28:22.732Z,2.13
2024-04-10T23:30:51.557Z,1.97
2024-04-10T23:33:19.422Z,2.27
2024-04-10T23:35:47.567Z,2.00
2024-04-10T23:38:15.020Z,1.90
2024-04-10T23:40:43.588Z,2.10
2024-04-10T23:43:11.992Z,2.23
2024-04-10T23:45:40.230Z,1.70
2024-04-10T23:48:08.598Z,2.30
2024-04-10T23:50:36.255Z,1.90
2024-04-10T23:53:03.769Z,1.87
2024-04-10T23:55:31.255Z,2.03
2024-04-10T23:58:01.323Z,2.20
